Time;durP1;ratioP1;P1;durP2;ratioP2;P2;SDS_P1;SDS_P2;PMS_P1;PMS_P2;Temp;Humidity;BMP_temperature;BMP_pressure;BME280_temperature;BME280_humidity;BME280_pressure;Samples;Min_cycle;Max_cycle;Signal;HPM_P1;HPM_P2
2022/09/08 00:00:38;;;;;;;2.42;2.13;;;;;;;10.18;68.85;99564.94;5031449;28;20065;-57
2022/09/08 00:03:06;;;;;;;2.63;2.03;;;;;;;10.23;68.68;99569.91;5028456;28;20025;-56
2022/09/08 00:05:36;;;;;;;2.10;1.80;;;;;;;10.11;68.31;99542.34;5013481;28;20059;-54
2022/09/08 00:08:03;;;;;;;3.05;2.30;;;;;;;10.28;67.93;99575.72;5031596;28;20044;-55
2022/09/08 00:10:30;;;;;;;5.75;2.83;;;;;;;10.17;68.21;99553.38;5013010;28;20026;-55
2022/09/08 00:12:56;;;;;;;1.90;1.70;;;;;;;10.24;67.98;99571.59;5010923;28;20041;-56
2022/09/08 00:15:21;;;;;;;9.27;4.95;;;;;;;10.24;68.00;99580.47;5020648;28;20338;-54
2022/09/08 00:17:47;;;;;;;6.05;4.20;;;;;;;10.24;68.04;99580.47;5031396;28;20093;-55
2022/09/08 00:20:13;;;;;;;3.08;2.78;;;;;;;10.24;67.91;99584.97;5031488;28;20080;-56
2022/09/08 00:22:39;;;;;;;4.00;2.40;;;;;;;10.24;68.07;99577.78;5012285;28;20394;-54
2022/09/08 00:25:05;;;;;;;2.28;2.00;;;;;;;10.25;68.06;99584.88;5017819;28;20068;-57
2022/09/08 00:27:31;;;;;;;6.35;3.97;;;;;;;10.20;67.64;99579.03;5029711;28;20029;-57
2022/09/08 00:29:56;;;;;;;3.45;1.88;;;;;;;10.23;67.81;99585.94;5031775;28;20033;-55
2022/09/08 00:32:23;;;;;;;2.80;2.20;;;;;;;10.20;67.97;99579.88;5030432;28;20044;-55
2022/09/08 00:34:50;;;;;;;6.45;3.70;;;;;;;10.17;67.57;99584.63;5030954;28;20080;-53
2022/09/08 00:37:16;;;;;;;2.80;2.15;;;;;;;10.09;67.90;99576.41;5030806;28;20037;-57
2022/09/08 00:39:41;;;;;;;3.38;2.25;;;;;;;10.12;67.90;99584.16;5011676;28;20514;-55
2022/09/08 00:42:07;;;;;;;2.75;1.92;;;;;;;10.12;67.96;99581.50;5011069;28;20037;-54
2022/09/08 00:44:41;;;;;;;3.53;2.08;;;;;;;10.18;67.72;99589.00;5021031;28;20392;-56
2022/09/08 00:47:55;;;;;;;2.00;1.55;;;;;;;10.20;68.14;99587.91;5030733;28;20496;-54
2022/09/08 00:50:24;;;;;;;4.97;3.15;;;;;;;10.05;67.88;99575.78;5028049;28;20087;-58
2022/09/08 00:53:00;;;;;;;2.38;1.58;;;;;;;10.07;68.32;99589.06;5010875;28;20037;-52
2022/09/08 00:55:28;;;;;;;4.82;2.67;;;;;;;10.06;67.98;99593.53;5012466;28;20522;-56
2022/09/08 00:57:53;;;;;;;1.90;1.73;;;;;;;9.85;68.09;99556.06;5030112;28;20477;-56
2022/09/08 01:00:20;;;;;;;4.00;3.22;;;;;;;10.02;68.02;99582.25;5029114;28;20030;-56
2022/09/08 01:02:46;;;;;;;2.92;1.95;;;;;;;10.02;67.96;99586.75;5026997;28;20099;-56
2022/09/08 01:05:15;;;;;;;3.72;2.33;;;;;;;10.04;67.80;99590.16;5010578;28;20042;-56
2022/09/08 01:13:28;;;;;;;2.58;1.90;;;;;;;10.00;67.82;99596.72;5030122;28;20504;-56
2022/09/08 01:15:55;;;;;;;5.00;2.55;;;;;;;9.94;67.33;99589.22;5024403;28;20037;-55
2022/09/08 01:18:21;;;;;;;2.50;1.92;;;;;;;9.98;67.39;99594.16;5011030;28;20044;-55
2022/09/08 01:20:54;;;;;;;4.63;2.80;;;;;;;9.99;67.63;99595.03;5010498;28;20021;-54
2022/09/08 01:23:25;;;;;;;1.85;1.73;;;;;;;9.99;67.55;99598.53;5019552;28;20048;-59
2022/09/08 01:26:41;;;;;;;2.17;1.75;;;;;;;10.09;68.04;99606.66;5030104;28;20041;-54
2022/09/08 01:29:09;;;;;;;3.58;2.80;;;;;;;9.99;67.78;99597.72;5027716;28;20041;-53
2022/09/08 01:31:40;;;;;;;4.32;3.10;;;;;;;9.99;67.30;99613.75;5029953;28;20029;-50
2022/09/08 01:34:06;;;;;;;3.92;2.67;;;;;;;9.94;67.36;99607.94;5030175;28;20090;-57
2022/09/08 01:36:32;;;;;;;3.78;3.30;;;;;;;9.90;67.28;99604.66;5028338;28;20038;-56
2022/09/08 01:38:57;;;;;;;4.35;3.47;;;;;;;9.90;67.24;99610.88;5030037;28;20430;-55
2022/09/08 01:41:23;;;;;;;2.88;2.63;;;;;;;9.78;67.59;99590.47;5021008;28;20107;-57
2022/09/08 01:43:48;;;;;;;4.80;3.60;;;;;;;9.87;67.00;99610.25;5010727;28;20116;-56
2022/09/08 01:46:14;;;;;;;5.82;4.28;;;;;;;9.88;67.47;99606.59;5010271;28;20412;-55
2022/09/08 01:48:39;;;;;;;4.47;3.63;;;;;;;9.87;67.59;99613.75;5010944;28;20033;-54
2022/09/08 01:51:07;;;;;;;5.00;4.22;;;;;;;9.90;67.18;99608.19;5010926;28;20026;-55
2022/09/08 01:53:33;;;;;;;7.10;5.28;;;;;;;9.85;67.74;99612.19;5011792;28;20497;-57
2022/09/08 01:55:59;;;;;;;4.88;3.80;;;;;;;9.85;67.47;99613.03;5010669;28;20155;-56
2022/09/08 01:58:25;;;;;;;6.97;4.60;;;;;;;9.65;67.40;99584.41;5022028;28;20030;-56
2022/09/08 02:00:51;;;;;;;4.40;3.88;;;;;;;9.82;67.49;99613.28;5021359;28;20053;-55
2022/09/08 02:03:17;;;;;;;4.93;3.63;;;;;;;9.84;67.39;99615.84;5014039;28;20115;-53
2022/09/08 02:05:44;;;;;;;4.95;3.67;;;;;;;9.84;67.41;99621.19;5015395;28;20054;-52
2022/09/08 02:08:10;;;;;;;5.68;3.72;;;;;;;9.86;66.94;99619.25;5014328;28;20041;-57
2022/09/08 02:10:37;;;;;;;8.82;5.70;;;;;;;9.87;67.51;99623.63;5013743;28;20029;-55
2022/09/08 02:13:04;;;;;;;5.35;4.15;;;;;;;9.89;67.12;99625.22;5029589;28;20032;-54
2022/09/08 02:15:30;;;;;;;4.32;3.92;;;;;;;9.86;67.04;99625.44;5033115;28;20394;-54
2022/09/08 02:17:59;;;;;;;7.57;4.07;;;;;;;9.87;67.13;99632.47;5026962;28;20103;-54
2022/09/08 02:20:25;;;;;;;4.82;3.65;;;;;;;9.80;67.15;99619.75;5013850;28;20030;-56
2022/09/08 02:22:54;;;;;;;4.03;3.55;;;;;;;9.81;67.41;99624.97;5013011;28;20041;-57
2022/09/08 02:25:21;;;;;;;5.30;4.10;;;;;;;9.63;67.05;99601.41;5030903;28;20032;-54
2022/09/08 02:27:46;;;;;;;7.35;5.28;;;;;;;9.80;67.39;99631.28;5033451;28;20032;-56
2022/09/08 02:30:11;;;;;;;7.22;4.57;;;;;;;9.83;67.41;99631.03;5024962;28;20041;-57
2022/09/08 02:32:37;;;;;;;4.90;4.10;;;;;;;9.87;67.13;99632.47;5013987;28;20421;-56
2022/09/08 02:35:03;;;;;;;5.10;4.40;;;;;;;9.89;66.67;99638.59;5014114;28;20084;-52
2022/09/08 02:37:29;;;;;;;4.88;3.97;;;;;;;9.91;66.89;99639.31;5031280;28;20033;-55
2022/09/08 02:39:55;;;;;;;5.13;3.88;;;;;;;9.90;66.31;99642.09;5033011;28;20818;-54
2022/09/08 02:42:21;;;;;;;4.55;4.05;;;;;;;9.88;66.82;99639.53;5031908;28;20152;-54
2022/09/08 02:44:47;;;;;;;4.75;3.55;;;;;;;9.88;66.88;99642.19;5013736;28;20065;-53
2022/09/08 02:47:12;;;;;;;4.80;3.90;;;;;;;9.85;66.55;99638.94;5011934;28;20394;-55
2022/09/08 02:49:38;;;;;;;4.05;3.50;;;;;;;9.88;66.70;99641.38;5024614;28;20108;-57
2022/09/08 02:52:03;;;;;;;3.60;3.30;;;;;;;9.83;66.39;99640.91;5033683;28;20037;-57
2022/09/08 02:54:28;;;;;;;5.13;3.78;;;;;;;9.84;66.25;99643.44;5032173;28;20030;-55
2022/09/08 02:56:54;;;;;;;5.07;3.90;;;;;;;9.88;66.11;99652.91;5018409;28;20084;-57
2022/09/08 02:59:20;;;;;;;4.43;3.67;;;;;;;9.90;66.30;99656.31;5012892;28;20528;-57
2022/09/08 03:01:46;;;;;;;5.82;3.58;;;;;;;9.87;66.74;99653.88;5013285;28;20363;-53
2022/09/08 03:04:12;;;;;;;4.07;3.38;;;;;;;9.87;67.16;99651.19;5030880;28;20037;-57
2022/09/08 03:06:39;;;;;;;5.00;3.00;;;;;;;9.86;67.34;99657.53;5032629;28;20057;-54
2022/09/08 03:09:06;;;;;;;3.63;2.92;;;;;;;9.83;67.75;99656.94;5025496;28;20084;-54
2022/09/08 03:11:32;;;;;;;4.13;2.75;;;;;;;9.82;67.89;99668.59;5012219;28;20470;-57
2022/09/08 03:13:59;;;;;;;5.05;3.95;;;;;;;9.79;67.95;99672.38;5013291;28;20178;-56
2022/09/08 03:16:25;;;;;;;5.20;3.95;;;;;;;9.82;68.20;99674.78;5013586;28;20045;-52
2022/09/08 03:18:51;;;;;;;5.50;3.53;;;;;;;9.81;67.91;99673.09;5011539;28;20034;-50
2022/09/08 03:21:17;;;;;;;4.20;3.40;;;;;;;9.80;67.67;99676.75;5013538;28;20037;-55
2022/09/08 03:23:42;;;;;;;3.55;3.15;;;;;;;9.82;68.36;99672.13;5012747;28;20141;-57
2022/09/08 03:26:16;;;;;;;4.75;3.38;;;;;;;9.85;68.01;99677.22;5012941;28;20042;-57
2022/09/08 03:28:44;;;;;;;4.90;3.35;;;;;;;9.82;67.49;99681.97;5030879;28;20037;-53
2022/09/08 03:31:13;;;;;;;4.40;3.45;;;;;;;9.83;67.46;99673.81;5031146;28;20057;-55
2022/09/08 03:33:39;;;;;;;3.35;3.05;;;;;;;9.80;67.14;99681.25;5030425;28;20470;-58
2022/09/08 03:36:06;;;;;;;3.53;3.17;;;;;;;9.82;67.23;99681.97;5032541;28;20539;-57
2022/09/08 03:38:32;;;;;;;4.82;3.05;;;;;;;9.81;67.49;99686.47;5029705;28;20705;-58
2022/09/08 03:40:58;;;;;;;3.55;3.25;;;;;;;9.83;66.91;99689.03;5012345;28;20045;-58
2022/09/08 03:43:23;;;;;;;3.30;3.00;;;;;;;9.85;66.99;99689.75;5012341;28;20030;-58
2022/09/08 03:45:49;;;;;;;3.50;3.17;;;;;;;9.90;67.00;99691.09;5025281;28;20493;-58
2022/09/08 03:48:15;;;;;;;3.22;2.92;;;;;;;9.91;66.90;99700.81;5032169;28;20037;-58
2022/09/08 03:50:40;;;;;;;4.40;3.33;;;;;;;9.97;66.46;99706.63;5027714;28;20022;-55
2022/09/08 03:53:06;;;;;;;2.97;2.78;;;;;;;10.00;66.55;99703.72;5012794;28;20026;-53
2022/09/08 03:55:33;;;;;;;3.42;3.03;;;;;;;10.03;66.04;99707.00;5011895;28;20165;-56
2022/09/08 03:57:59;;;;;;;3.75;3.33;;;;;;;10.02;65.67;99709.78;5013063;28;20033;-55
2022/09/08 04:00:25;;;;;;;4.28;2.97;;;;;;;10.00;66.13;99711.75;5012217;28;20030;-56
2022/09/08 04:02:51;;;;;;;3.47;3.03;;;;;;;10.05;66.13;99714.88;5016815;28;20037;-52
2022/09/08 04:05:17;;;;;;;3.58;3.00;;;;;;;10.09;65.49;99702.13;5019933;28;20030;-52
2022/09/08 04:07:43;;;;;;;3.50;3.20;;;;;;;10.17;65.46;99713.91;5019926;28;20041;-54
2022/09/08 04:10:11;;;;;;;4.20;3.15;;;;;;;10.29;64.63;99721.91;5019872;28;20049;-53
2022/09/08 04:12:37;;;;;;;3.30;2.90;;;;;;;10.32;64.02;99711.81;5021063;28;20025;-57
2022/09/08 04:15:03;;;;;;;4.03;3.13;;;;;;;10.29;63.75;99695.16;5019939;28;20463;-54
2022/09/08 04:17:29;;;;;;;3.25;2.80;;;;;;;10.65;63.17;99721.72;5019415;28;20356;-54
2022/09/08 04:19:55;;;;;;;3.75;3.20;;;;;;;10.89;62.43;99721.53;5021461;28;20799;-56
2022/09/08 04:22:22;;;;;;;3.22;2.88;;;;;;;11.16;61.59;99729.03;5019944;28;20034;-54
2022/09/08 04:24:48;;;;;;;3.20;2.47;;;;;;;11.29;60.73;99714.59;5019086;28;20030;-55
2022/09/08 04:27:14;;;;;;;4.43;3.15;;;;;;;11.46;59.58;99723.88;5022260;28;20100;-57
2022/09/08 04:29:39;;;;;;;2.88;2.60;;;;;;;11.66;59.19;99715.94;5020881;28;20025;-53
2022/09/08 04:32:09;;;;;;;3.55;2.92;;;;;;;12.00;58.01;99721.88;5020837;28;20030;-57
2022/09/08 04:34:35;;;;;;;3.20;2.90;;;;;;;12.28;56.92;99714.06;5019053;28;20042;-57
2022/09/08 04:37:01;;;;;;;3.78;2.42;;;;;;;12.56;55.97;99711.56;5020043;28;20393;-59
2022/09/08 04:39:27;;;;;;;2.60;2.40;;;;;;;12.58;55.53;99711.44;5020643;28;20052;-56
2022/09/08 04:41:53;;;;;;;4.20;2.55;;;;;;;12.47;55.63;99715.94;5018907;28;20037;-55
2022/09/08 04:44:18;;;;;;;3.28;2.15;;;;;;;12.36;55.90;99718.75;5019038;28;20458;-56
2022/09/08 04:46:44;;;;;;;3.97;2.55;;;;;;;12.27;56.02;99719.56;5019766;28;20417;-57
2022/09/08 04:49:09;;;;;;;3.05;2.50;;;;;;;12.22;56.41;99720.00;5021378;28;20112;-56
2022/09/08 04:51:35;;;;;;;3.53;2.50;;;;;;;12.07;56.81;99724.91;5019288;28;20026;-54
2022/09/08 04:54:01;;;;;;;5.93;2.75;;;;;;;11.87;57.19;99732.84;5018601;28;20091;-56
2022/09/08 04:56:28;;;;;;;2.63;2.42;;;;;;;11.59;57.53;99742.44;5019940;28;20389;-54
2022/09/08 04:58:54;;;;;;;3.63;2.28;;;;;;;11.39;58.23;99741.47;5019141;28;20160;-58
2022/09/08 05:01:23;;;;;;;5.80;2.60;;;;;;;11.24;58.64;99746.31;5017984;28;20121;-54
2022/09/08 05:03:55;;;;;;;5.15;2.75;;;;;;;11.07;59.23;99724.47;5018124;28;20086;-56
2022/09/08 05:06:22;;;;;;;4.88;2.90;;;;;;;11.30;58.57;99746.63;5019668;28;20046;-55
2022/09/08 05:08:49;;;;;;;2.53;2.30;;;;;;;11.51;57.52;99756.50;5018085;28;20046;-57
2022/09/08 05:11:19;;;;;;;4.45;2.72;;;;;;;11.67;56.90;99755.19;5019870;28;20508;-56
2022/09/08 05:13:45;;;;;;;2.90;2.40;;;;;;;12.03;55.30;99747.59;5020441;28;20022;-54
2022/09/08 05:16:13;;;;;;;4.57;2.40;;;;;;;13.11;53.12;99752.31;5019279;28;20022;-60
2022/09/08 05:18:39;;;;;;;3.33;2.67;;;;;;;13.96;49.88;99727.38;5012430;28;20037;-56
2022/09/08 05:21:06;;;;;;;6.75;2.45;;;;;;;14.74;47.86;99748.53;5010857;28;20422;-56
2022/09/08 05:23:32;;;;;;;4.38;2.22;;;;;;;16.43;44.38;99743.91;5020743;28;20500;-56
2022/09/08 05:26:07;;;;;;;3.10;2.30;;;;;;;18.83;40.13;99742.69;5030376;28;20033;-53
2022/09/08 05:28:35;;;;;;;3.53;2.00;;;;;;;21.12;34.93;99747.81;5029462;28;20029;-56
2022/09/08 05:31:02;;;;;;;2.92;2.10;;;;;;;24.40;28.98;99743.53;5030335;28;20041;-54
2022/09/08 05:33:27;;;;;;;2.38;1.88;;;;;;;25.76;26.39;99736.91;5021505;28;20425;-54
2022/09/08 05:35:54;;;;;;;2.20;1.95;;;;;;;27.42;23.65;99714.00;5031399;28;20030;-55
2022/09/08 05:38:20;;;;;;;2.00;1.90;;;;;;;28.29;22.56;99736.31;5036162;28;20030;-56
2022/09/08 05:40:45;;;;;;;2.53;1.65;;;;;;;26.41;24.23;99748.44;5023920;28;20037;-54
2022/09/08 05:43:11;;;;;;;1.85;1.73;;;;;;;25.43;25.54;99748.16;5030990;28;20033;-58
2022/09/08 05:45:37;;;;;;;2.67;2.00;;;;;;;24.03;27.25;99756.88;5036325;28;20025;-55
2022/09/08 05:48:03;;;;;;;4.07;1.95;;;;;;;22.53;29.56;99753.41;5022600;28;20116;-58
2022/09/08 05:50:34;;;;;;;2.97;2.20;;;;;;;21.13;31.91;99761.25;5017032;28;20034;-58
2022/09/08 05:53:01;;;;;;;5.28;2.13;;;;;;;20.27;32.97;99756.50;5017818;28;20034;-59
2022/09/08 05:55:28;;;;;;;7.60;2.40;;;;;;;19.29;34.68;99765.44;5036849;28;20386;-59
2022/09/08 05:57:54;;;;;;;3.65;2.50;;;;;;;18.38;36.35;99758.72;5036819;28;20545;-54
2022/09/08 06:00:20;;;;;;;4.28;2.33;;;;;;;17.74;37.41;99768.53;5034111;28;20436;-56
2022/09/08 06:02:51;;;;;;;5.07;2.53;;;;;;;17.43;38.75;99771.94;5036606;28;20489;-56
2022/09/08 06:05:22;;;;;;;2.75;2.50;;;;;;;17.17;39.32;99769.44;5019398;28;20033;-55
2022/09/08 06:07:48;;;;;;;8.30;2.83;;;;;;;16.45;39.95;99755.41;5016860;28;20044;-55
2022/09/08 06:10:15;;;;;;;4.68;2.30;;;;;;;15.90;41.34;99775.59;5016723;28;20038;-54
2022/09/08 06:12:41;;;;;;;3.30;1.98;;;;;;;15.16;42.76;99773.16;5018135;28;20470;-54
2022/09/08 06:15:08;;;;;;;5.20;2.38;;;;;;;14.60;44.67;99774.13;5018039;28;20030;-53
2022/09/08 06:17:34;;;;;;;3.85;2.53;;;;;;;14.21;46.00;99782.38;5016716;28;20441;-53
2022/09/08 06:20:00;;;;;;;4.70;2.88;;;;;;;13.98;46.85;99779.22;5017588;28;20082;-54
2022/09/08 06:22:29;;;;;;;3.28;2.42;;;;;;;13.96;47.05;99786.59;5016758;28;20037;-54
2022/09/08 06:24:55;;;;;;;5.88;2.38;;;;;;;13.95;46.65;99790.28;5017247;28;20128;-57
2022/09/08 06:27:54;;;;;;;3.70;2.03;;;;;;;14.37;45.78;99789.81;5030593;28;20378;-58
2022/09/08 06:30:19;;;;;;;3.70;1.95;;;;;;;14.63;44.70;99786.41;5036322;28;20053;-54
2022/09/08 06:32:57;;;;;;;2.95;2.00;;;;;;;15.20;44.16;99790.75;5034934;28;20033;-59
2022/09/08 06:35:35;;;;;;;2.50;2.03;;;;;;;15.82;42.59;99794.41;5036699;28;20048;-58
2022/09/08 06:38:14;;;;;;;2.10;1.90;;;;;;;16.18;41.67;99797.00;5035286;28;20044;-52
2022/09/08 06:40:43;;;;;;;3.55;2.47;;;;;;;16.14;41.64;99801.84;5034818;28;20038;-56
2022/09/08 06:43:20;;;;;;;5.63;2.17;;;;;;;16.00;42.00;99803.31;5036580;28;20535;-55
2022/09/08 06:45:50;;;;;;;2.97;2.30;;;;;;;15.73;42.64;99802.44;5033425;28;20054;-55
2022/09/08 06:48:33;;;;;;;4.30;2.45;;;;;;;15.73;43.36;99812.41;5013080;28;20045;-56
2022/09/08 06:51:10;;;;;;;5.35;2.85;;;;;;;15.36;43.99;99811.59;5013334;28;20026;-54
2022/09/08 06:54:08;;;;;;;5.25;2.65;;;;;;;15.04;45.35;99823.75;5014595;28;20289;-55
2022/09/08 06:56:40;;;;;;;6.40;3.13;;;;;;;14.42;46.99;99819.84;5020090;28;20033;-59
2022/09/08 06:59:31;;;;;;;3.22;2.65;;;;;;;14.01;48.12;99814.78;5017982;28;20869;-56
2022/09/08 07:02:06;;;;;;;4.07;2.85;;;;;;;13.71;50.06;99832.84;5012065;28;20053;-53
2022/09/08 07:04:56;;;;;;;3.43;2.77;;;;;;;13.46;51.63;99839.66;5013379;28;20444;-54
2022/09/08 07:07:32;;;;;;;3.60;2.70;;;;;;;13.10;53.15;99833.97;5012586;28;20311;-54
2022/09/08 07:10:16;;;;;;;4.55;2.78;;;;;;;12.98;53.30;99836.75;5032030;28;20047;-55
2022/09/08 07:13:00;;;;;;;7.45;3.40;;;;;;;12.72;54.94;99842.66;5032544;28;20112;-58
2022/09/08 07:15:44;;;;;;;5.45;3.03;;;;;;;12.76;55.21;99860.19;5030395;28;20034;-56
2022/09/08 07:18:19;;;;;;;5.32;3.00;;;;;;;12.75;55.30;99853.13;5032071;28;20056;-59
2022/09/08 07:20:45;;;;;;;6.95;3.00;;;;;;;12.71;54.92;99853.56;5029318;28;20454;-58
2022/09/08 07:23:19;;;;;;;3.85;3.00;;;;;;;12.69;55.24;99856.34;5012845;28;20038;-57
2022/09/08 07:26:04;;;;;;;5.10;3.17;;;;;;;12.69;56.03;99858.22;5012611;28;20029;-56
2022/09/08 07:28:39;;;;;;;4.70;2.67;;;;;;;12.52;54.87;99846.25;5012271;28;20032;-59
2022/09/08 07:31:10;;;;;;;5.05;2.72;;;;;;;12.37;55.00;99833.22;5026130;28;20336;-55
2022/09/08 07:33:41;;;;;;;4.13;2.50;;;;;;;12.59;55.76;99859.00;5026105;28;20375;-54
2022/09/08 07:36:44;;;;;;;3.45;2.70;;;;;;;12.62;55.69;99864.09;5012000;28;20034;-59
2022/09/08 07:39:30;;;;;;;4.70;2.55;;;;;;;12.91;55.35;99867.88;5019032;28;20041;-57
2022/09/08 07:41:59;;;;;;;3.70;2.72;;;;;;;13.57;53.87;99870.94;5031988;28;20061;-53
2022/09/08 07:44:25;;;;;;;4.78;3.35;;;;;;;13.79;52.85;99861.72;5025731;28;20044;-55
2022/09/08 07:46:51;;;;;;;3.97;3.38;;;;;;;13.82;54.30;99865.94;5011703;28;20038;-57
2022/09/08 07:49:28;;;;;;;5.05;2.92;;;;;;;13.72;54.40;99868.66;5012146;28;20034;-56
2022/09/08 07:52:12;;;;;;;6.30;4.40;;;;;;;13.36;56.12;99877.25;5025223;28;20052;-56
2022/09/08 07:54:47;;;;;;;6.10;4.70;;;;;;;13.34;57.55;99871.19;5031464;28;20029;-55
2022/09/08 07:57:30;;;;;;;5.13;2.97;;;;;;;13.91;54.69;99874.00;5029566;28;20069;-55
2022/09/08 08:00:05;;;;;;;4.28;3.88;;;;;;;14.78;52.72;99873.03;5020616;28;20140;-60
2022/09/08 08:02:49;;;;;;;6.05;3.85;;;;;;;15.01;51.45;99870.78;5024340;28;20098;-61
2022/09/08 08:05:27;;;;;;;4.70;4.20;;;;;;;14.81;51.42;99874.56;5024926;28;20056;-56
2022/09/08 08:08:12;;;;;;;6.05;3.83;;;;;;;14.56;51.67;99876.94;5014905;28;20155;-52
2022/09/08 08:10:49;;;;;;;6.03;4.28;;;;;;;14.14;52.56;99884.44;5012623;28;20370;-56
2022/09/08 08:13:14;;;;;;;7.00;4.10;;;;;;;13.51;53.89;99883.13;5011029;28;20064;-60
2022/09/08 08:15:53;;;;;;;7.93;3.85;;;;;;;13.07;54.99;99884.31;5012275;28;20064;-59
2022/09/08 08:18:37;;;;;;;4.75;3.20;;;;;;;12.84;55.33;99893.59;5022611;28;20082;-56
2022/09/08 08:21:20;;;;;;;8.18;3.28;;;;;;;12.76;54.66;99889.75;5028869;28;20041;-54
2022/09/08 08:23:49;;;;;;;5.60;3.50;;;;;;;13.08;54.46;99890.53;5028500;28;20041;-52
2022/09/08 08:26:41;;;;;;;4.85;2.83;;;;;;;13.95;52.58;99881.78;5025703;28;20116;-54
2022/09/08 08:29:22;;;;;;;3.47;2.40;;;;;;;14.88;49.88;99876.53;5015933;28;20033;-58
2022/09/08 08:31:57;;;;;;;4.70;2.10;;;;;;;15.43;48.00;99881.97;5017448;28;20033;-54
2022/09/08 08:34:38;;;;;;;;;;;;;;;16.29;46.91;99888.59;5031035;28;20041;-51
2022/09/08 08:37:06;;;;;;;4.97;2.88;;;;;;;16.11;45.58;99885.06;5026044;28;20439;-49
2022/09/08 08:39:35;;;;;;;2.42;2.17;;;;;;;15.96;46.04;99885.66;5021289;28;20224;-56
2022/09/08 08:42:29;;;;;;;3.08;2.35;;;;;;;15.83;46.12;99877.94;5018616;28;20186;-52
2022/09/08 08:44:57;;;;;;;2.75;2.33;;;;;;;15.38;46.56;99884.28;5025048;28;20087;-55
2022/09/08 08:47:36;;;;;;;5.18;2.80;;;;;;;15.17;46.94;99882.72;5026359;28;20045;-56
2022/09/08 08:50:01;;;;;;;4.35;2.30;;;;;;;15.17;46.84;99888.09;5011016;28;20080;-56
2022/09/08 08:52:51;;;;;;;2.90;2.50;;;;;;;15.38;46.77;99884.28;5011469;28;20074;-52
2022/09/08 08:56:08;;;;;;;3.85;2.13;;;;;;;15.03;47.41;99890.34;5015333;28;20460;-50
2022/09/08 08:58:42;;;;;;;4.55;2.45;;;;;;;14.44;47.54;99895.13;5015676;28;20393;-55
2022/09/08 09:01:26;;;;;;;2.80;2.28;;;;;;;14.12;49.06;99899.91;5011726;28;20048;-55
2022/09/08 09:04:43;;;;;;;2.45;2.25;;;;;;;14.00;49.59;99904.59;5014565;28;20498;-57
2022/09/08 09:07:43;;;;;;;4.78;2.13;;;;;;;13.71;50.22;99907.31;5030019;28;20060;-58
2022/09/08 09:10:29;;;;;;;26.10;3.58;;;;;;;13.24;51.03;99906.13;5046305;28;20043;-52
2022/09/08 09:13:31;;;;;;;12.27;2.80;;;;;;;13.17;51.36;99916.59;5004097;28;20052;-61
2022/09/08 09:16:16;;;;;;;5.68;2.13;;;;;;;12.81;52.14;99936.88;5021252;28;20042;-61
2022/09/08 09:19:12;;;;;;;6.55;2.20;;;;;;;12.65;52.82;99916.72;5023768;28;20151;-59
2022/09/08 09:22:17;;;;;;;5.43;1.80;;;;;;;12.43;52.95;99934.72;5017116;28;20025;-54
2022/09/08 09:25:11;;;;;;;13.95;2.33;;;;;;;12.61;52.76;99932.25;5008242;28;20030;-55
2022/09/08 09:27:46;;;;;;;2.05;1.58;;;;;;;12.83;51.70;99935.72;5017777;28;20029;-54
2022/09/08 09:30:14;;;;;;;;;;;;;;;13.32;50.38;99930.50;5019365;28;20353;-55
2022/09/08 09:33:11;;;;;;;3.33;1.40;;;;;;;13.34;50.10;99946.47;5019689;28;20331;-52
2022/09/08 09:36:07;;;;;;;19.88;3.00;;;;;;;13.46;50.02;99939.16;5017155;28;20463;-55
2022/09/08 09:38:39;;;;;;;;;;;;;;;13.78;48.97;99949.66;5020687;28;20026;-53
2022/09/08 09:41:07;;;;;;;1.63;1.20;;;;;;;13.41;48.93;99938.69;5017626;28;19914;-54
2022/09/08 09:44:10;;;;;;;3.47;1.33;;;;;;;13.34;50.01;99952.72;5025982;28;20095;-53
2022/09/08 09:47:13;;;;;;;14.70;2.08;;;;;;;13.28;50.00;99947.91;5027269;28;20044;-55
2022/09/08 09:50:15;;;;;;;4.72;2.38;;;;;;;13.25;49.92;99961.59;5026388;28;20056;-53
2022/09/08 09:52:53;;;;;;;3.03;1.40;;;;;;;13.23;50.17;99962.72;5009853;28;20034;-55
2022/09/08 09:55:27;;;;;;;1.92;1.30;;;;;;;13.35;49.46;99961.59;5012902;28;20142;-56
2022/09/08 09:58:19;;;;;;;2.10;1.65;;;;;;;13.33;49.52;99959.06;5010390;28;20398;-60
2022/09/08 10:01:06;;;;;;;4.45;1.50;;;;;;;13.17;49.93;99967.69;5019852;28;20025;-59
2022/09/08 10:03:51;;;;;;;2.22;1.50;;;;;;;13.44;49.90;99960.81;5010021;28;20030;-57
2022/09/08 10:06:17;;;;;;;2.55;1.95;;;;;;;13.69;48.69;99966.66;5009981;28;20050;-56
2022/09/08 10:09:13;;;;;;;1.58;1.48;;;;;;;14.05;48.18;99968.78;5009575;28;20038;-58
2022/09/08 10:12:14;;;;;;;2.55;1.83;;;;;;;14.35;46.73;99965.06;5008985;28;20437;-59
2022/09/08 10:15:04;;;;;;;2.63;1.60;;;;;;;14.37;46.96;99964.91;5022037;28;20489;-57
2022/09/08 10:17:38;;;;;;;1.95;1.40;;;;;;;14.42;46.75;99970.69;5027555;28;20031;-60
2022/09/08 10:20:23;;;;;;;3.00;1.63;;;;;;;14.46;46.62;99977.47;5025130;28;20048;-55
2022/09/08 10:23:10;;;;;;;1.75;1.65;;;;;;;14.78;46.02;99970.91;5014285;28;20065;-55
2022/09/08 10:26:12;;;;;;;3.42;1.75;;;;;;;15.03;45.94;99989.25;5022227;28;20057;-55
2022/09/08 10:29:25;;;;;;;1.45;1.30;;;;;;;14.89;46.14;99979.78;5033324;28;20072;-53
2022/09/08 10:32:08;;;;;;;1.77;1.40;;;;;;;14.30;48.19;99983.47;5025238;28;20128;-55
2022/09/08 10:34:53;;;;;;;3.05;1.40;;;;;;;13.92;49.99;99994.13;5033618;28;20041;-56
2022/09/08 10:37:45;;;;;;;1.38;1.25;;;;;;;13.48;51.12;100004.41;5033247;28;20037;-55
2022/09/08 10:40:38;;;;;;;3.78;1.67;;;;;;;13.07;53.05;100010.66;5028506;28;20044;-61
2022/09/08 10:43:31;;;;;;;1.55;1.30;;;;;;;12.66;54.50;100015.13;5029471;28;20394;-59
2022/09/08 10:46:18;;;;;;;2.13;1.80;;;;;;;12.40;54.69;100010.16;5026330;28;20060;-55
2022/09/08 10:49:23;;;;;;;3.70;1.77;;;;;;;12.51;55.05;100019.97;5032273;28;20064;-56
2022/09/08 10:52:16;;;;;;;2.10;1.70;;;;;;;12.88;53.22;100019.47;5021212;28;20506;-56
2022/09/08 10:54:50;;;;;;;2.05;1.75;;;;;;;13.27;52.21;100018.78;5013294;28;20025;-54
2022/09/08 10:57:34;;;;;;;3.03;1.92;;;;;;;13.67;50.98;100018.91;5013767;28;20049;-57
2022/09/08 11:00:14;;;;;;;1.73;1.60;;;;;;;13.75;50.12;99984.91;5018564;28;20232;-59
2022/09/08 11:03:17;;;;;;;2.00;1.30;;;;;;;14.12;49.55;100012.13;5032981;28;20124;-56
2022/09/08 11:05:58;;;;;;;2.17;1.40;;;;;;;14.07;49.24;100017.94;5018286;28;20062;-55
2022/09/08 11:08:29;;;;;;;2.03;1.55;;;;;;;13.89;49.35;100015.94;5023800;28;20042;-58
2022/09/08 11:11:07;;;;;;;1.95;1.40;;;;;;;13.92;49.24;100010.28;5021799;28;20069;-58
2022/09/08 11:13:49;;;;;;;1.58;1.48;;;;;;;13.89;48.23;100002.50;5021453;28;20064;-56
2022/09/08 11:16:23;;;;;;;3.47;1.40;;;;;;;13.96;47.63;100010.00;5019108;28;20018;-57
2022/09/08 11:18:52;;;;;;;3.25;1.50;;;;;;;13.98;47.47;100006.19;5021365;28;20033;-56
2022/09/08 11:21:47;;;;;;;2.65;1.30;;;;;;;14.03;48.16;100014.69;5020906;28;20095;-55
2022/09/08 11:24:30;;;;;;;1.92;1.50;;;;;;;13.72;48.48;100033.63;5029326;28;20628;-54
2022/09/08 11:27:14;;;;;;;2.95;1.20;;;;;;;13.26;49.21;100038.59;5013793;28;20041;-59
2022/09/08 11:29:40;;;;;;;1.85;1.05;;;;;;;12.78;50.00;100042.75;5023471;28;20032;-57
2022/09/08 11:32:34;;;;;;;1.73;0.98;;;;;;;12.43;50.92;100025.16;5031606;28;20034;-57
2022/09/08 11:35:52;;;;;;;2.63;0.88;;;;;;;12.37;51.45;100037.28;5031805;28;20041;-57
2022/09/08 11:38:29;;;;;;;1.52;0.88;;;;;;;12.19;52.38;100037.84;5029654;28;20041;-55
2022/09/08 11:41:13;;;;;;;1.33;0.98;;;;;;;12.17;52.72;100038.94;5011797;28;20043;-57
2022/09/08 11:43:49;;;;;;;1.75;1.10;;;;;;;12.42;52.30;100040.41;5031121;28;20068;-57
2022/09/08 11:46:50;;;;;;;1.98;1.38;;;;;;;12.68;51.74;100040.00;5028010;28;20029;-55
2022/09/08 11:49:38;;;;;;;1.80;1.45;;;;;;;12.80;51.74;100037.25;5012421;28;20061;-55
2022/09/08 11:52:35;;;;;;;1.85;1.27;;;;;;;13.05;51.35;100042.19;5013715;28;20030;-56
2022/09/08 11:55:16;;;;;;;2.78;1.23;;;;;;;13.33;50.25;100034.38;5019737;28;20046;-56
2022/09/08 11:57:53;;;;;;;4.70;1.58;;;;;;;13.43;50.25;100045.19;5014455;28;20083;-57
2022/09/08 12:00:41;;;;;;;3.38;1.58;;;;;;;13.57;49.91;100038.56;5025386;28;20045;-60
2022/09/08 12:03:35;;;;;;;3.45;1.67;;;;;;;13.61;49.32;100034.59;5031732;28;20026;-58
2022/09/08 12:06:22;;;;;;;3.15;1.70;;;;;;;13.66;49.06;100034.22;5028950;28;20057;-55
2022/09/08 12:09:06;;;;;;;1.73;1.30;;;;;;;13.55;48.94;100037.00;5012173;28;20041;-56
2022/09/08 12:12:08;;;;;;;2.60;1.55;;;;;;;13.53;49.19;100039.84;5013132;28;20033;-57
2022/09/08 12:15:00;;;;;;;3.22;1.70;;;;;;;13.70;49.18;100034.75;5021390;28;20041;-57